Time;durP1;ratioP1;P1;durP2;ratioP2;P2;SDS_P1;SDS_P2;PMS_P1;PMS_P2;Temp;Humidity;BMP_temperature;BMP_pressure;BME280_temperature;BME280_humidity;BME280_pressure;Samples;Min_cycle;Max_cycle;Signal;HPM_P1;HPM_P2
2022/04/12 00:00:20;;;;;;;78.13;52.10;;;19.00;51.40;;;;;;4945424;28;85567;-32
2022/04/12 00:02:46;;;;;;;79.10;52.08;;;19.00;51.40;;;;;;4952104;28;86174;-32
2022/04/12 00:05:12;;;;;;;78.32;52.13;;;19.00;51.50;;;;;;4950212;28;85298;-32
2022/04/12 00:07:43;;;;;;;80.93;52.40;;;19.00;51.50;;;;;;4947926;28;85640;-33
2022/04/12 00:10:13;;;;;;;79.93;52.53;;;19.00;51.30;;;;;;4946166;28;85431;-33
2022/04/12 00:12:39;;;;;;;79.15;52.25;;;19.00;51.30;;;;;;4945193;28;85240;-33
2022/04/12 00:15:06;;;;;;;77.95;52.13;;;19.00;51.30;;;;;;4951346;28;85991;-33
2022/04/12 00:20:18;;;;;;;80.82;52.72;;;18.90;51.30;;;;;;4957491;28;85588;-33
2022/04/12 00:22:44;;;;;;;78.07;52.28;;;19.00;51.30;;;;;;4954299;28;85592;-33
2022/04/12 00:25:10;;;;;;;78.88;52.42;;;19.00;51.30;;;;;;4952959;28;85385;-33
2022/04/12 00:27:37;;;;;;;78.28;52.22;;;19.00;51.30;;;;;;4959001;28;85821;-33
2022/04/12 00:30:08;;;;;;;78.05;52.17;;;18.90;51.30;;;;;;4958367;28;85475;-32
2022/04/12 00:32:33;;;;;;;78.80;52.50;;;19.00;51.90;;;;;;4958397;28;85552;-32
2022/04/12 00:34:59;;;;;;;78.63;52.13;;;19.00;51.20;;;;;;4947177;28;89200;-33
2022/04/12 00:37:26;;;;;;;78.82;52.05;;;19.00;51.20;;;;;;4951335;28;85702;-33
2022/04/12 00:39:52;;;;;;;78.30;51.88;;;19.00;51.20;;;;;;4949918;28;86030;-33
2022/04/12 00:42:18;;;;;;;77.35;51.90;;;19.00;51.20;;;;;;4952554;28;85364;-33
2022/04/12 00:44:43;;;;;;;77.80;52.22;;;18.90;51.20;;;;;;4956087;28;86673;-33
2022/04/12 00:47:09;;;;;;;77.00;51.85;;;18.90;51.10;;;;;;4958931;28;86406;-33
2022/04/12 00:49:35;;;;;;;77.57;51.83;;;19.00;51.20;;;;;;4952861;28;85399;-32
2022/04/12 00:52:01;;;;;;;77.50;51.90;;;19.00;51.20;;;;;;4949577;28;86223;-33
2022/04/12 00:54:28;;;;;;;78.57;52.20;;;18.90;51.10;;;;;;4960127;28;85212;-33
2022/04/12 00:56:54;;;;;;;78.53;51.83;;;18.90;51.10;;;;;;4957001;28;85770;-34
2022/04/12 00:59:20;;;;;;;76.88;51.80;;;18.90;51.20;;;;;;4956124;28;85594;-33
2022/04/12 01:01:46;;;;;;;77.38;51.92;;;18.90;51.20;;;;;;4952555;28;85948;-33
2022/04/12 01:04:12;;;;;;;77.85;51.92;;;18.90;51.20;;;;;;4951460;28;87196;-33
2022/04/12 01:06:38;;;;;;;77.40;51.97;;;18.90;51.10;;;;;;4948765;28;86428;-32
2022/04/12 01:09:05;;;;;;;77.43;51.83;;;18.90;51.10;;;;;;4943790;28;87728;-33
2022/04/12 01:11:34;;;;;;;77.78;51.83;;;18.90;51.10;;;;;;4952454;28;86458;-33
2022/04/12 01:14:00;;;;;;;76.88;51.65;;;18.90;51.10;;;;;;4949601;28;85502;-33
2022/04/12 01:16:27;;;;;;;78.38;51.97;;;18.90;51.10;;;;;;4947990;28;85823;-33
2022/04/12 01:18:52;;;;;;;78.60;51.80;;;18.90;51.10;;;;;;4952620;28;85668;-33
2022/04/12 01:21:19;;;;;;;78.25;51.72;;;18.90;51.20;;;;;;4955616;28;87901;-33
2022/04/12 01:23:54;;;;;;;77.07;51.72;;;18.90;51.10;;;;;;4958702;28;85389;-33
2022/04/12 01:26:19;;;;;;;79.53;52.13;;;18.80;51.10;;;;;;4955474;28;86052;-33
2022/04/12 01:28:45;;;;;;;78.68;51.50;;;18.90;51.10;;;;;;4953562;28;89319;-33
2022/04/12 01:31:11;;;;;;;77.63;51.95;;;18.80;51.10;;;;;;4959595;28;85812;-32
2022/04/12 01:33:37;;;;;;;77.47;51.65;;;18.90;51.10;;;;;;4964271;28;85623;-33
2022/04/12 01:36:03;;;;;;;77.72;51.95;;;18.90;51.10;;;;;;4949489;28;85602;-33
2022/04/12 01:38:28;;;;;;;76.53;51.35;;;18.80;51.00;;;;;;4948958;28;86923;-33
2022/04/12 01:40:54;;;;;;;78.38;51.70;;;18.80;51.00;;;;;;4945125;28;86649;-33
2022/04/12 01:43:20;;;;;;;77.50;51.65;;;18.80;51.10;;;;;;4956223;28;85451;-33
2022/04/12 01:45:46;;;;;;;78.15;51.78;;;18.80;51.00;;;;;;4953359;28;86232;-33
2022/04/12 01:48:11;;;;;;;78.43;51.53;;;18.80;51.00;;;;;;4950098;28;87498;-33
2022/04/12 01:50:37;;;;;;;76.30;51.28;;;18.80;51.00;;;;;;4950156;28;90258;-33
2022/04/12 01:53:04;;;;;;;77.68;51.85;;;18.80;51.00;;;;;;4949567;28;86938;-33
2022/04/12 01:55:30;;;;;;;76.60;51.30;;;18.80;51.00;;;;;;4952419;28;85662;-33
2022/04/12 01:57:56;;;;;;;76.70;51.20;;;18.80;50.90;;;;;;4951102;28;85785;-33
2022/04/12 02:00:22;;;;;;;76.20;51.42;;;18.80;50.90;;;;;;4954439;28;85663;-32
2022/04/12 02:02:47;;;;;;;78.05;51.55;;;18.80;50.90;;;;;;4955516;28;85457;-33
2022/04/12 02:05:13;;;;;;;76.32;51.55;;;18.80;51.00;;;;;;4947366;28;86591;-33
2022/04/12 02:07:42;;;;;;;76.20;51.28;;;18.80;50.90;;;;;;4950395;28;86900;-33
2022/04/12 02:10:09;;;;;;;77.95;51.75;;;18.80;51.00;;;;;;4945931;28;86515;-32
2022/04/12 02:12:34;;;;;;;77.35;51.15;;;18.80;51.00;;;;;;4948580;28;85767;-33
2022/04/12 02:15:00;;;;;;;78.75;51.53;;;18.80;51.00;;;;;;4956106;28;85862;-33
2022/04/12 02:17:26;;;;;;;77.30;51.45;;;18.80;50.90;;;;;;4955058;28;87861;-33
2022/04/12 02:19:51;;;;;;;76.63;51.35;;;18.80;50.90;;;;;;4949884;28;85138;-33
2022/04/12 02:22:17;;;;;;;77.32;51.25;;;18.70;50.80;;;;;;4949849;28;85764;-33
2022/04/12 02:24:43;;;;;;;76.13;51.38;;;18.70;50.90;;;;;;4953271;28;85679;-34
2022/04/12 02:27:09;;;;;;;78.20;51.45;;;18.70;50.90;;;;;;4954020;28;85799;-33
2022/04/12 02:29:35;;;;;;;77.15;51.45;;;18.70;51.50;;;;;;4950394;28;86440;-33
2022/04/12 02:32:00;;;;;;;75.65;51.35;;;18.70;50.90;;;;;;4950272;28;85348;-33
2022/04/12 02:34:26;;;;;;;75.53;50.88;;;18.70;50.90;;;;;;4952554;28;87188;-33
2022/04/12 02:36:52;;;;;;;76.78;51.28;;;18.70;51.10;;;;;;4949185;28;85342;-33
2022/04/12 02:39:17;;;;;;;77.32;51.35;;;18.70;50.90;;;;;;4949871;28;85692;-33
2022/04/12 02:41:43;;;;;;;77.53;51.47;;;18.70;50.80;;;;;;4950934;28;85822;-32
2022/04/12 02:44:08;;;;;;;76.32;51.28;;;18.70;50.90;;;;;;4947564;28;87051;-33
2022/04/12 02:46:34;;;;;;;76.47;51.25;;;18.70;50.90;;;;;;4954079;28;85951;-33
2022/04/12 02:49:00;;;;;;;75.78;51.17;;;18.70;50.90;;;;;;4951802;28;85469;-33
2022/04/12 02:51:25;;;;;;;76.00;51.15;;;18.70;50.90;;;;;;4954062;28;85493;-33
2022/04/12 02:53:51;;;;;;;75.93;51.05;;;18.70;50.90;;;;;;4954500;28;86432;-33
2022/04/12 02:56:17;;;;;;;77.07;51.33;;;18.70;50.90;;;;;;4956999;28;86639;-32
2022/04/12 02:58:42;;;;;;;76.22;51.10;;;18.60;50.90;;;;;;4954770;28;85076;-32
2022/04/12 03:01:08;;;;;;;75.40;51.05;;;18.60;50.90;;;;;;4931553;28;87328;-33
2022/04/12 03:03:34;;;;;;;76.97;51.38;;;18.60;50.80;;;;;;4949170;28;86363;-33
2022/04/12 03:06:00;;;;;;;76.53;51.15;;;18.60;50.80;;;;;;4948293;28;85856;-33
2022/04/12 03:08:25;;;;;;;75.97;51.13;;;18.60;50.80;;;;;;4956514;28;85395;-33
2022/04/12 03:10:51;;;;;;;76.00;51.13;;;18.70;50.80;;;;;;4944121;28;86057;-33
2022/04/12 03:13:17;;;;;;;75.53;51.05;;;18.60;50.80;;;;;;4952941;28;86059;-33
2022/04/12 03:15:42;;;;;;;75.28;50.95;;;18.60;50.80;;;;;;4959380;28;85915;-33
2022/04/12 03:18:08;;;;;;;75.68;50.97;;;18.60;50.80;;;;;;4953491;28;86149;-33
2022/04/12 03:20:34;;;;;;;75.43;51.10;;;18.60;50.90;;;;;;4949076;28;86164;-33
2022/04/12 03:23:00;;;;;;;78.53;50.92;;;18.60;50.90;;;;;;4952901;28;86570;-33
2022/04/12 03:25:25;;;;;;;76.00;50.88;;;18.50;50.90;;;;;;4946847;28;86649;-33
2022/04/12 03:27:51;;;;;;;75.53;50.80;;;18.50;50.90;;;;;;4951178;28;85214;-33
2022/04/12 03:30:17;;;;;;;76.93;50.97;;;18.50;50.90;;;;;;4954482;28;86876;-33
2022/04/12 03:32:43;;;;;;;75.45;50.83;;;18.50;51.60;;;;;;4954878;28;85202;-33
2022/04/12 03:35:09;;;;;;;76.80;51.15;;;18.50;50.90;;;;;;4942445;28;85836;-33
2022/04/12 03:37:34;;;;;;;76.10;51.00;;;18.50;50.90;;;;;;4952957;28;85437;-33
2022/04/12 03:40:01;;;;;;;75.60;50.80;;;18.50;50.90;;;;;;4949713;28;86612;-33
2022/04/12 03:42:26;;;;;;;74.72;50.67;;;18.50;51.00;;;;;;4952794;28;87998;-33
2022/04/12 03:44:52;;;;;;;76.13;51.00;;;18.50;50.90;;;;;;4954342;28;85858;-33
2022/04/12 03:47:18;;;;;;;75.57;50.88;;;18.50;50.90;;;;;;4950475;28;87345;-33
2022/04/12 03:49:44;;;;;;;77.05;51.00;;;18.50;50.90;;;;;;4949742;28;86594;-32
2022/04/12 03:52:10;;;;;;;76.00;51.03;;;18.50;50.90;;;;;;4944399;28;85576;-33
2022/04/12 03:54:36;;;;;;;75.85;50.67;;;18.50;50.90;;;;;;4951459;28;85570;-33
2022/04/12 03:57:02;;;;;;;75.32;50.83;;;18.40;50.90;;;;;;4947562;28;85084;-33
2022/04/12 03:59:27;;;;;;;75.47;50.90;;;18.50;50.90;;;;;;4949183;28;86536;-33
2022/04/12 04:01:53;;;;;;;75.70;50.75;;;18.40;51.00;;;;;;4946893;28;87994;-33
2022/04/12 04:04:20;;;;;;;75.80;50.88;;;18.40;50.90;;;;;;4946827;28;85526;-33
2022/04/12 04:06:46;;;;;;;76.07;51.03;;;18.40;50.90;;;;;;4941392;28;85205;-33
2022/04/12 04:09:12;;;;;;;77.65;50.92;;;18.40;50.90;;;;;;4952292;28;85845;-32
2022/04/12 04:11:42;;;;;;;75.53;51.05;;;18.40;50.90;;;;;;4948004;28;85937;-33
2022/04/12 04:14:09;;;;;;;75.32;50.85;;;18.40;50.90;;;;;;4951928;28;85997;-33
2022/04/12 04:16:38;;;;;;;75.80;50.92;;;18.40;51.00;;;;;;4946684;28;85627;-33
2022/04/12 04:19:04;;;;;;;78.10;50.85;;;18.40;50.90;;;;;;4951545;28;85615;-33
2022/04/12 04:21:30;;;;;;;75.50;50.95;;;18.40;50.90;;;;;;4947841;28;85229;-33
2022/04/12 04:23:56;;;;;;;75.07;51.05;;;18.30;51.00;;;;;;4950601;28;87048;-33
2022/04/12 04:26:22;;;;;;;76.85;50.75;;;18.30;50.90;;;;;;4955347;28;85903;-32
2022/04/12 04:28:49;;;;;;;79.63;51.50;;;18.40;51.00;;;;;;4955792;28;86600;-33
2022/04/12 04:31:15;;;;;;;74.85;50.72;;;18.30;51.00;;;;;;4952177;28;85454;-32
2022/04/12 04:33:41;;;;;;;77.07;50.90;;;18.30;50.90;;;;;;4954850;28;86616;-32
2022/04/12 04:36:06;;;;;;;75.30;51.03;;;18.30;50.90;;;;;;4951666;28;85524;-33
2022/04/12 04:38:32;;;;;;;75.03;50.83;;;18.30;50.90;;;;;;4920667;28;85543;-33
2022/04/12 04:40:58;;;;;;;75.68;50.90;;;18.30;50.90;;;;;;4951260;28;92310;-32
2022/04/12 04:43:24;;;;;;;74.65;50.75;;;18.30;50.90;;;;;;4955898;28;85414;-33
2022/04/12 04:45:50;;;;;;;74.80;50.72;;;18.30;50.90;;;;;;4951851;28;86376;-33
2022/04/12 04:48:15;;;;;;;76.10;51.00;;;18.30;51.00;;;;;;4953505;28;86475;-32
2022/04/12 04:50:41;;;;;;;75.30;50.88;;;18.30;51.00;;;;;;4951816;28;86620;-33
2022/04/12 04:53:11;;;;;;;75.30;50.70;;;18.30;51.00;;;;;;4959890;28;85520;-33
2022/04/12 04:55:37;;;;;;;77.75;51.15;;;18.30;51.00;;;;;;4956609;28;86494;-33
2022/04/12 04:58:04;;;;;;;74.65;50.53;;;18.30;51.00;;;;;;4947723;28;87858;-33
2022/04/12 05:00:32;;;;;;;75.03;50.55;;;18.20;51.10;;;;;;4949781;28;85631;-33
2022/04/12 05:02:58;;;;;;;75.13;50.83;;;18.20;51.00;;;;;;4943343;28;85758;-33
2022/04/12 05:05:24;;;;;;;75.90;51.10;;;18.30;51.10;;;;;;4947082;28;85252;-33
2022/04/12 05:07:52;;;;;;;79.45;51.35;;;18.20;51.00;;;;;;4950557;28;86978;-33
2022/04/12 05:10:28;;;;;;;75.55;51.03;;;18.20;51.00;;;;;;4949281;28;85273;-33
2022/04/12 05:12:55;;;;;;;76.15;50.85;;;18.20;51.60;;;;;;4955444;28;86161;-33
2022/04/12 05:15:21;;;;;;;75.93;50.83;;;18.20;51.00;;;;;;4959122;28;85416;-33
2022/04/12 05:17:54;;;;;;;76.80;51.13;;;18.20;51.10;;;;;;4955996;28;85339;-33
2022/04/12 05:20:21;;;;;;;77.30;50.88;;;18.20;51.00;;;;;;4945255;28;86074;-33
2022/04/12 05:22:50;;;;;;;77.15;50.85;;;18.20;51.00;;;;;;4958301;28;85426;-33
2022/04/12 05:25:16;;;;;;;75.05;50.83;;;18.20;51.00;;;;;;4960274;28;85400;-32
2022/04/12 05:27:43;;;;;;;75.65;51.10;;;18.20;51.00;;;;;;4951880;28;85485;-33
2022/04/12 05:30:12;;;;;;;79.65;50.80;;;18.20;51.00;;;;;;4958663;28;85053;-33
2022/04/12 05:32:38;;;;;;;76.03;50.92;;;18.20;50.90;;;;;;4954156;28;85668;-33
2022/04/12 05:35:05;;;;;;;75.50;50.90;;;18.20;50.90;;;;;;4955890;28;86148;-32
2022/04/12 05:37:31;;;;;;;77.05;50.97;;;18.20;50.90;;;;;;4940638;28;86331;-33
2022/04/12 05:39:57;;;;;;;75.50;50.88;;;18.20;51.00;;;;;;4950348;28;90693;-32
2022/04/12 05:42:24;;;;;;;74.88;51.03;;;18.20;51.00;;;;;;4953257;28;86709;-33
2022/04/12 05:44:50;;;;;;;76.47;51.00;;;18.20;51.10;;;;;;4952361;28;85641;-33
2022/04/12 05:47:16;;;;;;;76.68;51.08;;;18.20;51.10;;;;;;4947127;28;86603;-33
2022/04/12 05:49:42;;;;;;;77.65;51.13;;;18.20;51.10;;;;;;4948864;28;86665;-33
2022/04/12 05:52:08;;;;;;;76.40;50.83;;;18.20;51.00;;;;;;4950663;28;86715;-33
2022/04/12 05:54:34;;;;;;;75.95;50.90;;;18.20;51.10;;;;;;4954947;28;85102;-33
2022/04/12 05:57:00;;;;;;;76.00;51.00;;;18.20;51.10;;;;;;4952355;28;85769;-33
2022/04/12 05:59:25;;;;;;;75.97;50.72;;;18.20;51.10;;;;;;4953991;28;85987;-32
2022/04/12 06:01:51;;;;;;;77.03;51.05;;;18.20;51.10;;;;;;4952185;28;85792;-33
2022/04/12 06:04:17;;;;;;;79.55;50.67;;;18.20;51.10;;;;;;4951432;28;85438;-33
2022/04/12 06:06:42;;;;;;;79.78;51.03;;;18.30;51.00;;;;;;4953729;28;92060;-33
2022/04/12 06:09:08;;;;;;;79.30;50.90;;;18.20;50.90;;;;;;4955865;28;85830;-33
2022/04/12 06:11:35;;;;;;;81.38;51.22;;;18.30;51.00;;;;;;4947994;28;87447;-33
2022/04/12 06:14:00;;;;;;;75.75;51.05;;;18.20;50.90;;;;;;4950986;28;87548;-33
2022/04/12 06:16:26;;;;;;;75.97;51.03;;;18.30;51.00;;;;;;4948468;28;85774;-33
2022/04/12 06:18:53;;;;;;;75.65;50.95;;;18.30;51.00;;;;;;4955169;28;85935;-33
2022/04/12 06:21:19;;;;;;;76.90;51.10;;;18.30;50.90;;;;;;4948997;28;86132;-33
2022/04/12 06:23:45;;;;;;;74.88;51.03;;;18.30;50.90;;;;;;4951706;28;86138;-33
2022/04/12 06:26:10;;;;;;;77.68;51.05;;;18.30;50.80;;;;;;4940333;28;85852;-33
2022/04/12 06:28:37;;;;;;;76.20;50.90;;;18.30;50.80;;;;;;4959079;28;85376;-33
2022/04/12 06:31:02;;;;;;;76.47;51.22;;;18.30;50.80;;;;;;4956728;28;85384;-33
2022/04/12 06:33:28;;;;;;;77.18;50.95;;;18.30;50.80;;;;;;4951098;28;87665;-33
2022/04/12 06:35:54;;;;;;;77.72;50.90;;;18.30;50.80;;;;;;4949120;28;86213;-32
2022/04/12 06:38:20;;;;;;;75.63;50.85;;;18.30;50.70;;;;;;4961502;28;86670;-32
2022/04/12 06:40:48;;;;;;;75.13;50.92;;;18.30;50.70;;;;;;4953108;28;86238;-32
2022/04/12 06:43:14;;;;;;;78.40;51.13;;;18.30;50.70;;;;;;4944684;28;85571;-33
2022/04/12 06:45:39;;;;;;;75.85;50.95;;;18.30;50.70;;;;;;4956611;28;86489;-33
2022/04/12 06:48:05;;;;;;;76.18;51.05;;;18.30;50.60;;;;;;4953419;28;85930;-33
2022/04/12 06:50:32;;;;;;;77.10;51.22;;;18.30;50.60;;;;;;4948648;28;85679;-33
2022/04/12 06:52:58;;;;;;;75.28;50.75;;;18.40;50.60;;;;;;4948573;28;86773;-32
2022/04/12 06:55:24;;;;;;;76.63;51.20;;;18.30;50.60;;;;;;4949586;28;85445;-32
2022/04/12 06:57:50;;;;;;;77.00;50.90;;;18.40;50.60;;;;;;4952410;28;87215;-33
2022/04/12 07:00:17;;;;;;;76.55;50.85;;;18.40;50.60;;;;;;4952551;28;85115;-33
2022/04/12 07:02:43;;;;;;;76.75;51.05;;;18.40;50.50;;;;;;4937468;28;85781;-33
2022/04/12 07:05:10;;;;;;;77.65;51.05;;;18.50;50.50;;;;;;4950912;28;85892;-33
2022/04/12 07:07:36;;;;;;;76.15;50.90;;;18.40;50.60;;;;;;4944381;28;86895;-32
2022/04/12 07:10:04;;;;;;;76.07;51.13;;;18.50;50.70;;;;;;4955889;28;86072;-33
2022/04/12 07:12:30;;;;;;;77.13;51.00;;;18.50;50.50;;;;;;4946817;28;85579;-33
2022/04/12 07:14:56;;;;;;;82.03;51.15;;;18.50;50.60;;;;;;4948464;28;86716;-33
2022/04/12 07:17:21;;;;;;;76.15;51.50;;;18.60;50.60;;;;;;4956807;28;85825;-33
2022/04/12 07:19:47;;;;;;;78.90;51.45;;;18.60;50.60;;;;;;4955040;28;85477;-33
2022/04/12 07:22:12;;;;;;;78.25;51.33;;;18.60;50.60;;;;;;4950373;28;85245;-33
2022/04/12 07:24:38;;;;;;;78.50;51.15;;;18.60;50.70;;;;;;4952734;28;86799;-33
2022/04/12 07:27:04;;;;;;;76.00;51.08;;;18.60;50.70;;;;;;4954403;28;85117;-33
2022/04/12 07:29:30;;;;;;;77.25;51.15;;;18.60;50.70;;;;;;4961259;28;85614;-33
2022/04/12 07:31:56;;;;;;;79.32;51.42;;;18.70;50.80;;;;;;4947658;28;92489;-33
2022/04/12 07:34:22;;;;;;;77.13;51.25;;;18.70;50.80;;;;;;4951540;28;85479;-33
2022/04/12 07:36:53;;;;;;;79.43;51.40;;;18.60;50.80;;;;;;4949287;28;88398;-32
2022/04/12 07:39:19;;;;;;;80.07;51.43;;;18.70;51.10;;;;;;4955597;28;85973;-33
2022/04/12 07:41:48;;;;;;;78.93;51.55;;;18.70;51.10;;;;;;4946683;28;87270;-33
2022/04/12 07:44:15;;;;;;;81.18;51.42;;;18.80;51.30;;;;;;4955064;28;85507;-33
2022/04/12 07:46:41;;;;;;;79.07;51.83;;;18.80;51.00;;;;;;4958390;28;86622;-33
2022/04/12 07:49:07;;;;;;;78.68;51.60;;;18.80;50.80;;;;;;4951064;28;87799;-33
2022/04/12 07:51:32;;;;;;;79.53;52.03;;;18.90;50.70;;;;;;4953066;28;85889;-32
2022/04/12 07:53:58;;;;;;;76.72;51.47;;;18.90;50.60;;;;;;4956781;28;86323;-33
2022/04/12 07:56:24;;;;;;;78.53;51.83;;;18.90;50.50;;;;;;4957659;28;85678;-33
2022/04/12 07:58:50;;;;;;;82.18;51.95;;;18.90;50.50;;;;;;4950002;28;90192;-33
2022/04/12 08:01:16;;;;;;;80.95;51.67;;;19.00;50.50;;;;;;4942719;28;85836;-33
2022/04/12 08:03:41;;;;;;;88.13;52.15;;;19.00;50.40;;;;;;4947293;28;86997;-32
2022/04/12 08:06:08;;;;;;;99.80;52.53;;;19.00;50.80;;;;;;4941418;28;86869;-33
2022/04/12 08:08:34;;;;;;;79.35;51.92;;;19.00;50.30;;;;;;4944779;28;86388;-32
2022/04/12 08:11:00;;;;;;;78.95;52.25;;;19.10;50.30;;;;;;4946444;28;85749;-31
2022/04/12 08:13:26;;;;;;;79.45;52.03;;;19.10;50.30;;;;;;4953218;28;86176;-33
2022/04/12 08:15:52;;;;;;;87.45;52.20;;;19.10;50.30;;;;;;4936575;28;86319;-33
2022/04/12 08:18:17;;;;;;;81.32;52.20;;;19.20;50.30;;;;;;4949926;28;85454;-33
2022/04/12 08:20:43;;;;;;;80.32;52.17;;;19.20;50.30;;;;;;4948933;28;85143;-34
2022/04/12 08:23:09;;;;;;;84.68;51.92;;;19.20;50.40;;;;;;4948699;28;87554;-33
2022/04/12 08:25:34;;;;;;;80.90;52.40;;;19.20;50.30;;;;;;4963290;28;85953;-33
2022/04/12 08:28:00;;;;;;;85.85;52.33;;;19.30;50.30;;;;;;4956700;28;85359;-33
2022/04/12 08:30:26;;;;;;;79.68;52.03;;;19.30;50.30;;;;;;4954155;28;85215;-33
2022/04/12 08:32:52;;;;;;;81.43;52.35;;;19.30;50.30;;;;;;4952953;28;85344;-33
2022/04/12 08:35:18;;;;;;;86.50;52.50;;;19.30;50.20;;;;;;4956669;28;87081;-33
2022/04/12 08:37:44;;;;;;;87.65;52.20;;;19.30;50.30;;;;;;4955678;28;85305;-33
2022/04/12 08:40:11;;;;;;;83.55;52.13;;;19.40;50.30;;;;;;4957360;28;84994;-33
2022/04/12 08:42:37;;;;;;;81.05;51.95;;;19.40;50.40;;;;;;4951575;28;85752;-33
2022/04/12 08:45:06;;;;;;;79.35;52.08;;;19.40;50.40;;;;;;4951732;28;86428;-34
2022/04/12 08:47:34;;;;;;;79.82;52.00;;;19.40;50.50;;;;;;4952718;28;85615;-33
2022/04/12 08:50:01;;;;;;;82.93;52.05;;;19.40;50.50;;;;;;4953691;28;85980;-33
2022/04/12 08:52:27;;;;;;;82.93;52.03;;;19.40;50.50;;;;;;4949926;28;86696;-33
2022/04/12 08:54:53;;;;;;;78.40;52.00;;;19.40;50.40;;;;;;4954705;28;91052;-33
2022/04/12 08:57:19;;;;;;;81.95;52.25;;;19.50;50.50;;;;;;4949418;28;87238;-33
2022/04/12 08:59:46;;;;;;;80.88;52.40;;;19.50;50.50;;;;;;4954788;28;85536;-33
2022/04/12 09:02:12;;;;;;;84.65;52.15;;;19.50;50.60;;;;;;4945557;28;86249;-33
2022/04/12 09:04:38;;;;;;;86.85;52.40;;;19.50;50.60;;;;;;4953383;28;85397;-33
2022/04/12 09:07:09;;;;;;;84.35;52.10;;;19.50;50.80;;;;;;4947194;28;86327;-33
2022/04/12 09:09:35;;;;;;;83.13;51.93;;;19.50;50.80;;;;;;4948988;28;86291;-44
2022/04/12 09:12:03;;;;;;;85.55;52.45;;;19.50;50.70;;;;;;4932714;28;86301;-37
2022/04/12 09:14:57;;;;;;;88.32;52.47;;;19.60;51.10;;;;;;4951365;28;86689;-37
2022/04/12 09:17:37;;;;;;;83.68;52.22;;;19.70;51.10;;;;;;4944826;28;85873;-36
2022/04/12 09:20:12;;;;;;;82.55;52.20;;;19.70;51.10;;;;;;4955599;28;85625;-38
2022/04/12 09:22:38;;;;;;;81.22;52.15;;;19.70;51.20;;;;;;4943197;28;86852;-38
2022/04/12 09:25:05;;;;;;;84.07;52.45;;;19.70;51.40;;;;;;4942381;28;86531;-36
2022/04/12 09:27:33;;;;;;;80.85;52.33;;;19.80;51.60;;;;;;4948951;28;87205;-36
2022/04/12 09:30:01;;;;;;;84.22;52.35;;;19.80;51.60;;;;;;4947051;28;88461;-36
2022/04/12 09:32:34;;;;;;;80.30;52.45;;;19.80;51.70;;;;;;4940918;28;85809;-36
2022/04/12 09:35:00;;;;;;;84.05;52.35;;;19.80;52.00;;;;;;4941060;28;88956;-36
2022/04/12 09:37:29;;;;;;;83.45;52.55;;;19.90;52.10;;;;;;4938255;28;88124;-37
2022/04/12 09:39:58;;;;;;;81.97;52.33;;;19.90;52.90;;;;;;4938173;28;92305;-36
2022/04/12 09:42:48;;;;;;;86.38;53.00;;;19.90;52.30;;;;;;4933223;28;90341;-36
2022/04/12 09:45:24;;;;;;;87.28;52.63;;;19.90;52.40;;;;;;4935113;28;88623;-35
2022/04/12 09:47:55;;;;;;;82.57;52.65;;;20.00;52.50;;;;;;4938382;28;85495;-35
2022/04/12 09:50:28;;;;;;;83.15;52.22;;;20.00;52.40;;;;;;4942863;28;85909;-36
2022/04/12 09:53:01;;;;;;;83.60;52.58;;;20.00;52.60;;;;;;4935349;28;85574;-35
2022/04/12 09:55:41;;;;;;;82.20;52.65;;;20.00;52.40;;;;;;4945756;28;86985;-35
2022/04/12 09:58:10;;;;;;;83.40;52.60;;;20.10;52.30;;;;;;4941479;28;85817;-36
2022/04/12 10:00:38;;;;;;;91.63;52.90;;;20.10;52.40;;;;;;4934884;28;87283;-36
2022/04/12 10:03:17;;;;;;;87.35;53.05;;;20.10;52.30;;;;;;4934246;28;87023;-36
2022/04/12 10:05:44;;;;;;;84.13;52.85;;;20.20;52.30;;;;;;4941994;28;90116;-35
2022/04/12 10:08:12;;;;;;;82.93;52.70;;;20.20;52.50;;;;;;4934102;28;86456;-36
2022/04/12 10:10:41;;;;;;;87.22;53.00;;;20.20;52.30;;;;;;4935081;28;90219;-36
2022/04/12 10:13:09;;;;;;;81.47;52.85;;;20.20;52.10;;;;;;4931892;28;85755;-36
2022/04/12 10:15:36;;;;;;;81.82;52.95;;;20.10;52.00;;;;;;4936693;28;86694;-35
2022/04/12 10:18:02;;;;;;;87.47;52.95;;;20.10;52.00;;;;;;4938962;28;85534;-36
2022/04/12 10:20:28;;;;;;;84.35;52.97;;;20.10;51.80;;;;;;4942651;28;85005;-36
2022/04/12 10:22:57;;;;;;;82.68;52.70;;;20.10;51.70;;;;;;4942381;28;86435;-36
2022/04/12 10:25:24;;;;;;;82.65;52.95;;;20.10;51.70;;;;;;4941649;28;89898;-36
2022/04/12 10:27:59;;;;;;;81.70;52.65;;;20.00;51.60;;;;;;4944177;28;86899;-36
2022/04/12 10:30:27;;;;;;;84.15;52.88;;;20.10;51.60;;;;;;4948042;28;85773;-35
2022/04/12 10:33:16;;;;;;;82.32;52.60;;;20.10;51.50;;;;;;4943121;28;86110;-36
2022/04/12 10:35:44;;;;;;;81.53;52.83;;;20.00;51.40;;;;;;4937103;28;85669;-36
2022/04/12 10:38:16;;;;;;;81.78;52.90;;;20.10;51.40;;;;;;4936851;28;89565;-35
2022/04/12 10:40:51;;;;;;;;;;;20.10;51.40;;;;;;4940245;28;87625;-36
2022/04/12 10:43:30;;;;;;;81.13;52.63;;;20.10;51.30;;;;;;4929317;28;87119;-36
2022/04/12 10:45:57;;;;;;;82.72;52.65;;;20.00;51.30;;;;;;4935306;28;85572;-36
2022/04/12 10:48:26;;;;;;;82.63;52.95;;;20.00;51.30;;;;;;4921295;28;89241;-36
2022/04/12 10:50:55;;;;;;;83.00;52.85;;;20.00;51.30;;;;;;4930738;28;85144;-36
2022/04/12 10:53:36;;;;;;;82.93;52.97;;;20.10;51.30;;;;;;4936729;28;88084;-36
2022/04/12 10:56:13;;;;;;;83.55;52.72;;;20.10;51.30;;;;;;4941032;28;85487;-36
2022/04/12 10:58:40;;;;;;;83.22;52.95;;;20.10;51.30;;;;;;4941147;28;85709;-37
2022/04/12 11:01:10;;;;;;;85.43;53.22;;;20.10;51.40;;;;;;4937506;28;85260;-36
2022/04/12 11:03:41;;;;;;;87.88;53.00;;;20.10;51.50;;;;;;4942315;28;88482;-36
2022/04/12 11:06:24;;;;;;;89.68;53.50;;;20.10;51.70;;;;;;4940471;28;86018;-37
2022/04/12 11:08:54;;;;;;;88.60;54.30;;;20.10;51.80;;;;;;4946201;28;85664;-36
2022/04/12 11:11:27;;;;;;;90.60;53.60;;;20.20;52.10;;;;;;4945437;28;85996;-36
2022/04/12 11:13:53;;;;;;;91.00;53.72;;;20.20;52.20;;;;;;4943162;28;87380;-36
2022/04/12 11:16:27;;;;;;;91.97;53.83;;;20.20;52.30;;;;;;4946564;28;87225;-37
2022/04/12 11:18:58;;;;;;;87.13;54.20;;;20.20;52.40;;;;;;4952017;28;85664;-36
2022/04/12 11:21:47;;;;;;;94.75;54.35;;;20.20;52.50;;;;;;4941461;28;87587;-37
2022/04/12 11:24:15;;;;;;;91.00;53.78;;;20.30;52.50;;;;;;4948548;28;85686;-37
2022/04/12 11:26:47;;;;;;;88.43;54.25;;;20.30;52.50;;;;;;4945104;28;87054;-37
2022/04/12 11:29:21;;;;;;;90.68;54.50;;;20.30;52.60;;;;;;4954739;28;85075;-37
2022/04/12 11:31:53;;;;;;;93.32;54.00;;;20.30;52.50;;;;;;4946767;28;85479;-37
2022/04/12 11:34:20;;;;;;;92.63;54.10;;;20.30;52.70;;;;;;4942575;28;85913;-36
2022/04/12 11:36:51;;;;;;;95.63;54.72;;;20.30;52.70;;;;;;4934358;28;88590;-37
2022/04/12 11:39:21;;;;;;;88.45;53.92;;;20.40;52.70;;;;;;4940185;28;86755;-37
2022/04/12 11:41:48;;;;;;;97.80;54.67;;;20.30;52.60;;;;;;4937598;28;85121;-36
2022/04/12 11:44:14;;;;;;;91.50;53.92;;;20.30;52.60;;;;;;4938166;28;86022;-36
2022/04/12 11:46:39;;;;;;;91.20;54.40;;;20.40;52.60;;;;;;4936554;28;90447;-37
2022/04/12 11:49:09;;;;;;;87.53;54.00;;;20.40;52.60;;;;;;4933916;28;88884;-37
2022/04/12 11:51:56;;;;;;;91.47;54.17;;;20.40;52.50;;;;;;4933945;28;87862;-36
2022/04/12 11:54:32;;;;;;;93.32;54.45;;;20.40;52.50;;;;;;4941617;28;85647;-37
2022/04/12 11:57:06;;;;;;;86.90;53.97;;;20.40;52.60;;;;;;4942846;28;88009;-36
2022/04/12 11:59:37;;;;;;;91.55;53.92;;;20.40;52.60;;;;;;4942659;28;86753;-36
2022/04/12 12:02:06;;;;;;;91.43;53.80;;;20.40;52.50;;;;;;4937707;28;86007;-37
2022/04/12 12:04:34;;;;;;;95.75;54.20;;;20.50;52.70;;;;;;4935217;28;89999;-37
2022/04/12 12:07:03;;;;;;;87.20;54.05;;;20.50;52.60;;;;;;4933053;28;88201;-36
2022/04/12 12:09:29;;;;;;;94.45;54.50;;;20.50;52.70;;;;;;4926450;28;86082;-37
2022/04/12 12:12:13;;;;;;;90.43;53.78;;;20.50;52.60;;;;;;4939553;28;86498;-36
2022/04/12 12:14:39;;;;;;;90.85;54.17;;;20.60;52.60;;;;;;4937733;28;85962;-35
2022/04/12 12:17:09;;;;;;;94.65;54.40;;;20.60;52.50;;;;;;4938445;28;88187;-35
2022/04/12 12:19:39;;;;;;;94.88;54.65;;;20.60;52.40;;;;;;4940643;28;91270;-37
2022/04/12 12:22:13;;;;;;;94.05;54.50;;;20.70;52.50;;;;;;4937439;28;85741;-36
2022/04/12 12:24:56;;;;;;;101.13;55.15;;;20.70;52.30;;;;;;4936741;28;87070;-36
2022/04/12 12:27:30;;;;;;;98.80;54.95;;;20.70;52.10;;;;;;4922117;28;87781;-36
2022/04/12 12:30:10;;;;;;;96.40;55.05;;;20.70;52.00;;;;;;4936370;28;87395;-36
2022/04/12 12:32:38;;;;;;;90.93;54.30;;;20.70;51.80;;;;;;4931251;28;92230;-36